LOT6677 EPKT-HEGN
Flight info
| Callsign | LOT6677 |
|---|---|
| Flight time | N/A |
| Altitude | 35000 |
| Route | REGTO T195 RAZEC DCT KARIL DCT ADORU/N0449F370 UG80 EKI UL854 KULAR UT39 TOMBI M855 RASDA A16 CVO L315 SOKOT SOKOT1A |
| Aircraft | B38M/M-SDE1FGHILORVWXY/HB1 |
Departure
| Time | 2026-04-27 11:25 |
|---|---|
| Airport | Katowice Wojciech Korfanty International Airport (EPKT) |
Arrival
| Time | N/A |
|---|---|
| Airport | Hurghada International Airport (HEGN) |
| Time | Latitude | Longitude | Altitude | Speed | Heading |
|---|---|---|---|---|---|
| 2026-04-27 10:52 | 50.47183 | 19.07483 | 1028 ft | 0 kts | 180° |
| 2026-04-27 10:52 | 50.47183 | 19.07482 | 1001 ft | 0 kts | 180° |
| 2026-04-27 10:53 | 50.47183 | 19.07483 | 1001 ft | 0 kts | 180° |
| 2026-04-27 10:53 | 50.47183 | 19.07482 | 1001 ft | 0 kts | 180° |
| 2026-04-27 10:54 | 50.47183 | 19.07483 | 1001 ft | 0 kts | 180° |
| 2026-04-27 10:54 | 50.47183 | 19.07482 | 1001 ft | 0 kts | 180° |
| 2026-04-27 10:55 | 50.47183 | 19.07483 | 1001 ft | 0 kts | 180° |
| 2026-04-27 10:56 | 50.47183 | 19.07482 | 1001 ft | 0 kts | 180° |
| 2026-04-27 10:56 | 50.47183 | 19.07483 | 1001 ft | 0 kts | 180° |
| 2026-04-27 10:56 | 50.47183 | 19.07482 | 1001 ft | 0 kts | 180° |
| 2026-04-27 10:57 | 50.47183 | 19.07483 | 1001 ft | 0 kts | 180° |
| 2026-04-27 11:15 | 50.47202 | 19.07482 | 1005 ft | 3 kts | 180° |
| 2026-04-27 11:16 | 50.47223 | 19.07480 | 1001 ft | 4 kts | 153° |
| 2026-04-27 11:16 | 50.47234 | 19.07454 | 1002 ft | 3 kts | 90° |
| 2026-04-27 11:16 | 50.47234 | 19.07418 | 1001 ft | 1 kts | 90° |
| 2026-04-27 11:16 | 50.47234 | 19.07417 | 1001 ft | 0 kts | 90° |
| 2026-04-27 11:19 | 50.47234 | 19.07431 | 1001 ft | 4 kts | 90° |
| 2026-04-27 11:20 | 50.47234 | 19.07505 | 1005 ft | 9 kts | 90° |
| 2026-04-27 11:20 | 50.47234 | 19.07615 | 1005 ft | 11 kts | 90° |
| 2026-04-27 11:20 | 50.47234 | 19.07747 | 1002 ft | 13 kts | 90° |
| 2026-04-27 11:20 | 50.47234 | 19.07901 | 1005 ft | 15 kts | 90° |
| 2026-04-27 11:21 | 50.47234 | 19.08076 | 1005 ft | 17 kts | 91° |
| 2026-04-27 11:21 | 50.47233 | 19.08272 | 1003 ft | 19 kts | 90° |
| 2026-04-27 11:21 | 50.47232 | 19.08488 | 1004 ft | 21 kts | 90° |
| 2026-04-27 11:21 | 50.47232 | 19.08726 | 1003 ft | 23 kts | 90° |
| 2026-04-27 11:22 | 50.47231 | 19.08985 | 1006 ft | 25 kts | 90° |
| 2026-04-27 11:22 | 50.47231 | 19.09258 | 1002 ft | 25 kts | 90° |
| 2026-04-27 11:22 | 50.47230 | 19.09540 | 1006 ft | 26 kts | 90° |
| 2026-04-27 11:22 | 50.47229 | 19.09812 | 1006 ft | 21 kts | 90° |
| 2026-04-27 11:23 | 50.47231 | 19.09998 | 1002 ft | 15 kts | 77° |
| 2026-04-27 11:23 | 50.47294 | 19.10140 | 1001 ft | 17 kts | 52° |
| 2026-04-27 11:23 | 50.47368 | 19.10287 | 1001 ft | 18 kts | 52° |
| 2026-04-27 11:23 | 50.47450 | 19.10434 | 1001 ft | 18 kts | 25° |
| 2026-04-27 11:24 | 50.47526 | 19.10449 | 1001 ft | 10 kts | 1° |
| 2026-04-27 11:24 | 50.47592 | 19.10427 | 1003 ft | 10 kts | 302° |
| 2026-04-27 11:24 | 50.47594 | 19.10272 | 1005 ft | 29 kts | 270° |
| 2026-04-27 11:24 | 50.47597 | 19.09553 | 1002 ft | 99 kts | 269° |
| 2026-04-27 11:25 | 50.47600 | 19.08174 | 1000 ft | 154 kts | 270° |
| 2026-04-27 11:25 | 50.47586 | 19.06336 | 1351 ft | 175 kts | 272° |
| 2026-04-27 11:25 | 50.47580 | 19.04444 | 2354 ft | 169 kts | 276° |
| 2026-04-27 11:25 | 50.47597 | 19.02466 | 2771 ft | 199 kts | 275° |
| 2026-04-27 11:26 | 50.47609 | 19.00101 | 3181 ft | 228 kts | 273° |
| 2026-04-27 11:26 | 50.47566 | 18.97631 | 4087 ft | 234 kts | 264° |
| 2026-04-27 11:26 | 50.46837 | 18.95163 | 4407 ft | 265 kts | 227° |
| 2026-04-27 11:26 | 50.45255 | 18.93753 | 5325 ft | 273 kts | 197° |
| 2026-04-27 11:27 | 50.43346 | 18.93705 | 6248 ft | 276 kts | 178° |
| 2026-04-27 11:27 | 50.41388 | 18.93770 | 6830 ft | 285 kts | 182° |
| 2026-04-27 11:27 | 50.39403 | 18.93766 | 7566 ft | 289 kts | 183° |
| 2026-04-27 11:27 | 50.37366 | 18.93758 | 8213 ft | 296 kts | 183° |
| 2026-04-27 11:28 | 50.35290 | 18.93750 | 8870 ft | 302 kts | 183° |
| 2026-04-27 11:28 | 50.33170 | 18.93738 | 9532 ft | 308 kts | 184° |
| 2026-04-27 11:28 | 50.31023 | 18.94180 | 10178 ft | 316 kts | 161° |
| 2026-04-27 11:28 | 50.29116 | 18.95947 | 10638 ft | 327 kts | 135° |
| 2026-04-27 11:29 | 50.27758 | 18.98854 | 10882 ft | 339 kts | 111° |
| 2026-04-27 11:29 | 50.26777 | 19.02302 | 11102 ft | 357 kts | 110° |
| 2026-04-27 11:29 | 50.25732 | 19.05901 | 11410 ft | 371 kts | 111° |
| 2026-04-27 11:29 | 50.24649 | 19.09592 | 12019 ft | 374 kts | 110° |
| 2026-04-27 11:30 | 50.23553 | 19.13314 | 12609 ft | 380 kts | 110° |
| 2026-04-27 11:30 | 50.22441 | 19.17081 | 13203 ft | 385 kts | 110° |
| 2026-04-27 11:30 | 50.21314 | 19.20895 | 13806 ft | 389 kts | 110° |
| 2026-04-27 11:30 | 50.20168 | 19.24760 | 14350 ft | 394 kts | 110° |
| 2026-04-27 11:31 | 50.18999 | 19.28658 | 14870 ft | 400 kts | 114° |
| 2026-04-27 11:31 | 50.17575 | 19.32430 | 15411 ft | 405 kts | 117° |
| 2026-04-27 11:31 | 50.16125 | 19.36217 | 15956 ft | 409 kts | 117° |
| 2026-04-27 11:31 | 50.14673 | 19.40052 | 16469 ft | 413 kts | 117° |
| 2026-04-27 11:32 | 50.13212 | 19.43936 | 16981 ft | 417 kts | 117° |
| 2026-04-27 11:32 | 50.11741 | 19.47852 | 17470 ft | 421 kts | 117° |
| 2026-04-27 11:32 | 50.10334 | 19.51599 | 17984 ft | 424 kts | 117° |
| 2026-04-27 11:32 | 50.08819 | 19.55626 | 18466 ft | 428 kts | 117° |
| 2026-04-27 11:33 | 50.07172 | 19.59509 | 18874 ft | 434 kts | 130° |
| 2026-04-27 11:33 | 50.04915 | 19.62634 | 19305 ft | 436 kts | 148° |
| 2026-04-27 11:33 | 50.02190 | 19.64664 | 19699 ft | 435 kts | 166° |
| 2026-04-27 11:33 | 49.99259 | 19.65830 | 20084 ft | 436 kts | 171° |
| 2026-04-27 11:34 | 49.96298 | 19.66906 | 20483 ft | 439 kts | 171° |
| 2026-04-27 11:34 | 49.93315 | 19.67954 | 20904 ft | 440 kts | 171° |
| 2026-04-27 11:34 | 49.90346 | 19.69222 | 21304 ft | 447 kts | 160° |
| 2026-04-27 11:34 | 49.87640 | 19.71617 | 21736 ft | 452 kts | 142° |
| 2026-04-27 11:35 | 49.85418 | 19.75075 | 22115 ft | 454 kts | 127° |
| 2026-04-27 11:35 | 49.83474 | 19.78960 | 22494 ft | 458 kts | 126° |
| 2026-04-27 11:35 | 49.81532 | 19.82889 | 22918 ft | 460 kts | 126° |
| 2026-04-27 11:35 | 49.79595 | 19.86847 | 23325 ft | 464 kts | 125° |
| 2026-04-27 11:36 | 49.77647 | 19.90849 | 23745 ft | 467 kts | 125° |
| 2026-04-27 11:36 | 49.75688 | 19.94872 | 24088 ft | 470 kts | 125° |
| 2026-04-27 11:36 | 49.73717 | 19.98919 | 24487 ft | 471 kts | 126° |
| 2026-04-27 11:36 | 49.71740 | 20.02970 | 24881 ft | 473 kts | 126° |
| 2026-04-27 11:37 | 49.69752 | 20.07040 | 25258 ft | 476 kts | 126° |
| 2026-04-27 11:37 | 49.67750 | 20.11130 | 25645 ft | 478 kts | 126° |
| 2026-04-27 11:37 | 49.65740 | 20.15230 | 26054 ft | 479 kts | 126° |
| 2026-04-27 11:37 | 49.63721 | 20.19343 | 26415 ft | 482 kts | 126° |
| 2026-04-27 11:38 | 49.61694 | 20.23467 | 26787 ft | 484 kts | 126° |
| 2026-04-27 11:38 | 49.59652 | 20.27614 | 27135 ft | 486 kts | 126° |
| 2026-04-27 11:38 | 49.57604 | 20.31766 | 27509 ft | 487 kts | 126° |
| 2026-04-27 11:38 | 49.55549 | 20.35926 | 27846 ft | 489 kts | 126° |
| 2026-04-27 11:39 | 49.53482 | 20.40104 | 28176 ft | 491 kts | 126° |
| 2026-04-27 11:39 | 49.51406 | 20.44292 | 28519 ft | 493 kts | 126° |
| 2026-04-27 11:39 | 49.49321 | 20.48496 | 28848 ft | 495 kts | 126° |
| 2026-04-27 11:39 | 49.47224 | 20.52711 | 29187 ft | 497 kts | 127° |
| 2026-04-27 11:40 | 49.45119 | 20.56940 | 29505 ft | 499 kts | 127° |
| 2026-04-27 11:40 | 49.42999 | 20.61192 | 29828 ft | 501 kts | 127° |
| 2026-04-27 11:40 | 49.40869 | 20.65436 | 30144 ft | 503 kts | 129° |
| 2026-04-27 11:40 | 49.38452 | 20.69322 | 30391 ft | 505 kts | 136° |
| 2026-04-27 11:41 | 49.35938 | 20.73100 | 30639 ft | 507 kts | 136° |
| 2026-04-27 11:41 | 49.33420 | 20.76882 | 30914 ft | 508 kts | 136° |
| 2026-04-27 11:41 | 49.30891 | 20.80666 | 31177 ft | 509 kts | 136° |
| 2026-04-27 11:41 | 49.28349 | 20.84463 | 31412 ft | 511 kts | 136° |
| 2026-04-27 11:42 | 49.25801 | 20.88261 | 31660 ft | 512 kts | 136° |
| 2026-04-27 11:42 | 49.23246 | 20.92065 | 31916 ft | 514 kts | 136° |
| 2026-04-27 11:42 | 49.20681 | 20.95879 | 32217 ft | 513 kts | 136° |
| 2026-04-27 11:42 | 49.18122 | 20.99677 | 32555 ft | 513 kts | 136° |
| 2026-04-27 11:43 | 49.15565 | 21.03467 | 32881 ft | 512 kts | 136° |
| 2026-04-27 11:43 | 49.13011 | 21.07246 | 33197 ft | 511 kts | 137° |
| 2026-04-27 11:43 | 49.10268 | 21.10664 | 33512 ft | 508 kts | 148° |
| 2026-04-27 11:43 | 49.07354 | 21.13694 | 33822 ft | 508 kts | 147° |
| 2026-04-27 11:44 | 49.04452 | 21.16763 | 34087 ft | 508 kts | 147° |
| 2026-04-27 11:44 | 49.01545 | 21.19818 | 34359 ft | 507 kts | 147° |
| 2026-04-27 11:44 | 48.98641 | 21.22863 | 34623 ft | 506 kts | 147° |
| 2026-04-27 11:44 | 48.95744 | 21.25896 | 34862 ft | 506 kts | 147° |
| 2026-04-27 11:45 | 48.92844 | 21.28927 | 35106 ft | 505 kts | 147° |
| 2026-04-27 11:45 | 48.90925 | 21.30931 | 35206 ft | 505 kts | 147° |
| 2026-04-27 11:45 | 48.84167 | 21.37971 | 35213 ft | 502 kts | 147° |
| 2026-04-27 11:46 | 48.78402 | 21.43958 | 35217 ft | 502 kts | 147° |
| 2026-04-27 11:46 | 48.72637 | 21.49929 | 35212 ft | 501 kts | 148° |
| 2026-04-27 11:47 | 48.66880 | 21.55875 | 35209 ft | 501 kts | 147° |
| 2026-04-27 11:47 | 48.61121 | 21.61805 | 35217 ft | 501 kts | 148° |
| 2026-04-27 11:48 | 48.55359 | 21.67722 | 35225 ft | 500 kts | 148° |
| 2026-04-27 11:48 | 48.49608 | 21.73612 | 35233 ft | 500 kts | 148° |
| 2026-04-27 11:49 | 48.43852 | 21.79489 | 35229 ft | 499 kts | 148° |
| 2026-04-27 11:49 | 48.38104 | 21.85343 | 35234 ft | 498 kts | 148° |
| 2026-04-27 11:50 | 48.32359 | 21.91177 | 35234 ft | 498 kts | 148° |
| 2026-04-27 11:50 | 48.26617 | 21.96992 | 35234 ft | 497 kts | 148° |
| 2026-04-27 11:51 | 48.20885 | 22.02782 | 35237 ft | 497 kts | 148° |
| 2026-04-27 11:52 | 48.12292 | 22.11430 | 35239 ft | 496 kts | 148° |
| 2026-04-27 11:52 | 48.06564 | 22.17175 | 35237 ft | 495 kts | 148° |
| 2026-04-27 11:53 | 48.00843 | 22.22899 | 35237 ft | 495 kts | 148° |
| 2026-04-27 11:53 | 47.95162 | 22.28566 | 35235 ft | 494 kts | 148° |
| 2026-04-27 11:54 | 47.89412 | 22.34288 | 35238 ft | 494 kts | 148° |
| 2026-04-27 11:54 | 47.83746 | 22.39914 | 35237 ft | 493 kts | 148° |
| 2026-04-27 11:55 | 47.77953 | 22.45314 | 35246 ft | 489 kts | 154° |
| 2026-04-27 11:55 | 47.71931 | 22.50056 | 35249 ft | 489 kts | 155° |
| 2026-04-27 11:56 | 47.65913 | 22.54754 | 35252 ft | 489 kts | 155° |
| 2026-04-27 11:56 | 47.59898 | 22.59435 | 35252 ft | 488 kts | 155° |
| 2026-04-27 11:57 | 47.53898 | 22.64092 | 35251 ft | 487 kts | 155° |
| 2026-04-27 11:57 | 47.47896 | 22.68739 | 35251 ft | 486 kts | 155° |
| 2026-04-27 11:58 | 47.41900 | 22.73369 | 35242 ft | 486 kts | 155° |
| 2026-04-27 11:58 | 47.35914 | 22.77979 | 35240 ft | 485 kts | 155° |
| 2026-04-27 11:59 | 47.29926 | 22.82579 | 35236 ft | 485 kts | 155° |
| 2026-04-27 11:59 | 47.23949 | 22.87158 | 35233 ft | 484 kts | 155° |
| 2026-04-27 12:00 | 47.17972 | 22.91726 | 35231 ft | 484 kts | 155° |
| 2026-04-27 12:00 | 47.12003 | 22.96276 | 35231 ft | 483 kts | 155° |
| 2026-04-27 12:01 | 47.06043 | 23.00807 | 35222 ft | 483 kts | 155° |
| 2026-04-27 12:01 | 47.00084 | 23.05327 | 35230 ft | 482 kts | 155° |
| 2026-04-27 12:02 | 46.94127 | 23.09834 | 35226 ft | 481 kts | 155° |
| 2026-04-27 12:02 | 46.88179 | 23.14322 | 35221 ft | 481 kts | 155° |
| 2026-04-27 12:03 | 46.82276 | 23.18765 | 35215 ft | 480 kts | 156° |
| 2026-04-27 12:03 | 46.76328 | 23.23232 | 35209 ft | 481 kts | 156° |
| 2026-04-27 12:04 | 46.70381 | 23.27686 | 35209 ft | 481 kts | 156° |
| 2026-04-27 12:04 | 46.64434 | 23.32129 | 35207 ft | 480 kts | 156° |
| 2026-04-27 12:05 | 46.58486 | 23.36562 | 35202 ft | 480 kts | 156° |
| 2026-04-27 12:05 | 46.52543 | 23.40980 | 35204 ft | 480 kts | 156° |
| 2026-04-27 12:06 | 46.46599 | 23.45387 | 35207 ft | 480 kts | 156° |
| 2026-04-27 12:06 | 46.40653 | 23.49786 | 35211 ft | 480 kts | 156° |
| 2026-04-27 12:07 | 46.34708 | 23.54174 | 35208 ft | 480 kts | 156° |
| 2026-04-27 12:07 | 46.28757 | 23.58554 | 35206 ft | 480 kts | 156° |
| 2026-04-27 12:08 | 46.23812 | 23.62186 | 35208 ft | 480 kts | 156° |
| 2026-04-27 12:08 | 46.17862 | 23.66546 | 35202 ft | 480 kts | 157° |
| 2026-04-27 12:09 | 46.10943 | 23.71603 | 35203 ft | 480 kts | 157° |
| 2026-04-27 12:09 | 46.04990 | 23.75943 | 35204 ft | 480 kts | 157° |
| 2026-04-27 12:10 | 46.00003 | 23.79570 | 35201 ft | 479 kts | 157° |
| 2026-04-27 12:10 | 45.94048 | 23.83892 | 35210 ft | 480 kts | 157° |
| 2026-04-27 12:11 | 45.88127 | 23.88178 | 35202 ft | 480 kts | 157° |
| 2026-04-27 12:11 | 45.82166 | 23.92484 | 35206 ft | 480 kts | 157° |
| 2026-04-27 12:12 | 45.76202 | 23.96781 | 35208 ft | 480 kts | 157° |
| 2026-04-27 12:12 | 45.70238 | 24.01067 | 35204 ft | 480 kts | 157° |
| 2026-04-27 12:13 | 45.64277 | 24.05341 | 35205 ft | 479 kts | 157° |
| 2026-04-27 12:13 | 45.58312 | 24.09609 | 35206 ft | 479 kts | 157° |
| 2026-04-27 12:14 | 45.52351 | 24.13862 | 35208 ft | 479 kts | 157° |
| 2026-04-27 12:14 | 45.46388 | 24.18107 | 35212 ft | 479 kts | 158° |
| 2026-04-27 12:15 | 45.40434 | 24.22336 | 35210 ft | 478 kts | 158° |
| 2026-04-27 12:15 | 45.34480 | 24.26554 | 35215 ft | 478 kts | 158° |